CheckWX is a tool to help pilots better visualize weather data.  It is not intended as a substitute for an official pre-flight weather briefing.

20:43:17 UTC

KICR METAR
Winner Regional Airport
Winner, South Dakota, USA
Current

50 mins ago

KICR 231953Z AUTO 20010G21KT 10SM CLR 22/00 A3001 RMK AO2 SLP160 T02170000
Observed
Apr-23 @ 19:53 UTC
Wind
  • 200° at 10 KTS
  • Gusting to 21 KTS
Visibility
10 SM
Flight Rules
VFR
Cloud Levels
  • Clear skies
Temperature
22°C / 72°F
Dewpoint
C / 32°F
Humidity
23%
Altimeter
30.01" Hg
Pressure
1016.22 hPa
Previous

2 hours ago

KICR 231853Z AUTO 19012G19KT 10SM CLR 21/00 A3004 RMK AO2 SLP170 T02110000
Observed
Apr-23 @ 18:53 UTC
Wind
  • 190° at 12 KTS
  • Gusting to 19 KTS
Visibility
10 SM
Flight Rules
VFR
Cloud Levels
  • Clear skies
Temperature
21°C / 70°F
Dewpoint
C / 32°F
Humidity
25%
Altimeter
30.04" Hg
Pressure
1017.32 hPa
Previous

3 hours ago

KICR 231753Z AUTO 19009KT 160V220 10SM CLR 20/00 A3007 RMK AO2 SLP182 T02000000 10206 20078 58019
Observed
Apr-23 @ 17:53 UTC
Wind
  • 190° at 9 KTS
Visibility
10 SM
Flight Rules
VFR
Cloud Levels
  • Clear skies
Temperature
20°C / 68°F
Dewpoint
C / 32°F
Humidity
26%
Altimeter
30.07" Hg
Pressure
1018.32 hPa